Time;durP1;ratioP1;P1;durP2;ratioP2;P2;SDS_P1;SDS_P2;PMS_P1;PMS_P2;Temp;Humidity;BMP_temperature;BMP_pressure;BME280_temperature;BME280_humidity;BME280_pressure;Samples;Min_cycle;Max_cycle;Signal;HPM_P1;HPM_P2
2022/03/02 00:00:47;;;;;;;137.00;53.60;;;;;;;-5.01;58.83;99829.50;108379;1271;22707;-73
2022/03/02 00:03:14;;;;;;;148.20;53.10;;;;;;;-5.01;60.04;99828.48;108367;1271;22659;-73
2022/03/02 00:05:41;;;;;;;164.10;59.50;;;;;;;-5.03;60.51;99828.30;108400;1271;24144;-73
2022/03/02 00:08:08;;;;;;;169.30;59.00;;;;;;;-5.05;60.32;99825.72;108393;1271;23046;-73
2022/03/02 00:10:35;;;;;;;168.00;61.50;;;;;;;-5.06;60.14;99819.22;108435;1271;22650;-73
2022/03/02 00:13:02;;;;;;;157.20;58.10;;;;;;;-5.08;60.03;99819.18;108406;1271;22529;-73
2022/03/02 00:15:29;;;;;;;142.50;51.60;;;;;;;-5.11;60.00;99815.94;108452;1271;24352;-76
2022/03/02 00:17:56;;;;;;;158.50;54.70;;;;;;;-5.14;60.04;99814.87;108387;1271;22690;-76
2022/03/02 00:20:23;;;;;;;133.30;51.60;;;;;;;-5.16;59.83;99811.59;108358;1271;22546;-76
2022/03/02 00:22:52;;;;;;;149.00;51.30;;;;;;;-5.20;60.09;99813.23;108395;1271;22681;-73
2022/03/02 00:25:20;;;;;;;136.50;49.80;;;;;;;-5.23;60.04;99805.88;108410;1271;25403;-75
2022/03/02 00:27:47;;;;;;;129.90;50.80;;;;;;;-5.26;59.96;99800.89;108376;1271;22558;-73
2022/03/02 00:30:15;;;;;;;145.80;53.50;;;;;;;-5.30;59.65;99796.93;108353;1271;22555;-74
2022/03/02 00:32:42;;;;;;;149.80;53.20;;;;;;;-5.35;59.30;99791.23;108344;1271;22561;-73
2022/03/02 00:35:09;;;;;;;153.50;52.00;;;;;;;-5.39;59.97;99793.05;108381;1271;22688;-73
2022/03/02 00:37:36;;;;;;;178.70;65.60;;;;;;;-5.42;59.51;99790.27;108369;1271;22528;-73
2022/03/02 00:40:03;;;;;;;194.70;66.10;;;;;;;-5.46;59.44;99787.31;108362;1271;22642;-73
2022/03/02 00:42:31;;;;;;;203.30;71.70;;;;;;;-5.49;60.33;99788.63;108343;1271;22594;-75
2022/03/02 00:44:58;;;;;;;223.90;68.60;;;;;;;-5.52;60.08;99784.33;108322;1271;24257;-73
2022/03/02 00:47:25;;;;;;;212.40;66.80;;;;;;;-5.54;59.97;99784.63;108353;1271;22540;-73
2022/03/02 00:49:52;;;;;;;176.30;63.40;;;;;;;-5.54;59.72;99781.23;108368;1271;22553;-73
2022/03/02 00:52:20;;;;;;;147.00;55.30;;;;;;;-5.52;60.19;99784.65;108340;1271;25374;-72
2022/03/02 00:54:47;;;;;;;161.70;56.80;;;;;;;-5.52;61.20;99777.70;108413;1271;22525;-73
2022/03/02 00:57:14;;;;;;;167.00;56.00;;;;;;;-5.54;61.66;99777.16;108382;1271;22557;-73
2022/03/02 00:59:41;;;;;;;148.90;52.20;;;;;;;-5.57;61.65;99773.71;108379;1271;22652;-73
2022/03/02 01:02:09;;;;;;;142.00;50.60;;;;;;;-5.59;61.52;99770.61;108482;1271;25201;-73
2022/03/02 01:04:36;;;;;;;135.70;48.60;;;;;;;-5.62;61.26;99771.58;108351;1271;22720;-73
2022/03/02 01:07:04;;;;;;;138.60;51.00;;;;;;;-5.65;61.54;99768.15;108347;1271;24305;-73
2022/03/02 01:09:31;;;;;;;143.30;51.80;;;;;;;-5.69;61.11;99764.16;108389;1271;22672;-73
2022/03/02 01:11:58;;;;;;;144.00;54.00;;;;;;;-5.73;60.80;99765.47;108385;1271;22534;-73
2022/03/02 01:14:25;;;;;;;137.40;50.80;;;;;;;-5.76;60.58;99761.02;108367;1271;22704;-73
2022/03/02 01:16:52;;;;;;;137.70;51.60;;;;;;;-5.80;60.73;99762.61;108315;1271;23028;-73
2022/03/02 01:19:19;;;;;;;153.30;54.20;;;;;;;-5.84;60.49;99760.52;108364;1271;23277;-73
2022/03/02 01:21:46;;;;;;;154.10;52.80;;;;;;;-5.88;60.84;99754.84;108376;1271;24260;-75
2022/03/02 01:24:14;;;;;;;136.90;49.30;;;;;;;-5.92;60.65;99752.42;108344;1271;22713;-73
2022/03/02 01:26:41;;;;;;;127.90;46.60;;;;;;;-5.96;60.49;99752.85;108347;1271;22506;-73
2022/03/02 01:29:08;;;;;;;144.10;49.60;;;;;;;-5.99;61.49;99749.57;108373;1271;22538;-73
2022/03/02 01:31:35;;;;;;;145.90;51.50;;;;;;;-6.02;62.20;99751.39;108364;1271;22538;-73
2022/03/02 01:34:02;;;;;;;181.80;62.80;;;;;;;-6.05;61.24;99749.27;108384;1271;22547;-73
2022/03/02 01:36:29;;;;;;;157.90;54.40;;;;;;;-6.09;60.60;99753.46;108359;1271;22572;-76
2022/03/02 01:38:56;;;;;;;147.50;57.60;;;;;;;-6.08;60.89;99752.45;108329;1272;22601;-73
2022/03/02 01:41:25;;;;;;;143.10;54.90;;;;;;;-6.04;61.61;99747.27;108359;1271;22540;-74
2022/03/02 01:43:53;;;;;;;138.30;52.70;;;;;;;-6.03;62.54;99748.32;107917;1271;545324;-74
2022/03/02 01:46:21;;;;;;;126.50;50.10;;;;;;;-6.01;63.51;99745.63;108345;1271;22544;-74
2022/03/02 01:48:49;;;;;;;145.00;52.50;;;;;;;-6.00;64.10;99743.45;108421;1271;22555;-73
2022/03/02 01:51:18;;;;;;;148.40;52.80;;;;;;;-5.96;65.00;99743.85;108386;1271;22685;-73
2022/03/02 01:53:45;;;;;;;162.30;52.90;;;;;;;-5.96;65.43;99739.45;108341;1271;22586;-74
2022/03/02 01:56:13;;;;;;;135.70;50.70;;;;;;;-5.96;65.42;99739.46;108425;1271;22556;-73
2022/03/02 01:58:40;;;;;;;150.70;53.50;;;;;;;-5.97;64.79;99739.77;108359;1271;22562;-73
2022/03/02 02:01:07;;;;;;;152.50;54.00;;;;;;;-5.99;64.54;99738.38;108511;1271;23257;-74
2022/03/02 02:03:34;;;;;;;146.10;53.80;;;;;;;-6.02;64.13;99735.29;108401;1271;22684;-73
2022/03/02 02:06:02;;;;;;;141.40;50.90;;;;;;;-6.05;63.86;99733.02;108355;1271;22530;-74
2022/03/02 02:08:30;;;;;;;134.50;49.80;;;;;;;-6.08;63.83;99730.41;108354;1271;22513;-73
2022/03/02 02:11:00;;;;;;;139.10;51.50;;;;;;;-6.12;63.34;99728.48;108346;1271;22660;-74
2022/03/02 02:13:30;;;;;;;138.70;49.60;;;;;;;-6.15;63.55;99722.64;108378;1271;22994;-74
2022/03/02 02:15:57;;;;;;;140.30;52.00;;;;;;;-6.18;63.18;99719.73;108369;1271;22606;-74
2022/03/02 02:18:24;;;;;;;137.80;50.10;;;;;;;-6.22;63.41;99722.02;108363;1271;22537;-74
2022/03/02 02:20:51;;;;;;;146.40;51.10;;;;;;;-6.26;62.95;99722.11;108328;1271;22604;-74
2022/03/02 02:23:18;;;;;;;139.30;49.60;;;;;;;-6.29;63.04;99719.50;108360;1271;22610;-73
2022/03/02 02:25:45;;;;;;;147.20;52.20;;;;;;;-6.33;62.77;99715.69;108362;1271;22697;-73
2022/03/02 02:28:18;;;;;;;142.90;50.30;;;;;;;-6.34;62.82;99712.77;108357;1271;22538;-73
2022/03/02 02:30:46;;;;;;;144.50;53.10;;;;;;;-6.34;62.68;99711.60;108335;1271;22678;-73
2022/03/02 02:33:14;;;;;;;149.00;55.60;;;;;;;-6.30;62.92;99707.11;108370;1269;22654;-75
2022/03/02 02:35:41;;;;;;;143.30;53.90;;;;;;;-6.25;63.74;99708.71;108351;1271;22522;-74
2022/03/02 02:38:09;;;;;;;138.60;48.60;;;;;;;-6.21;64.73;99710.50;108375;1271;22533;-74
2022/03/02 02:40:37;;;;;;;150.70;50.90;;;;;;;-6.22;65.11;99708.61;108491;1270;22561;-74
2022/03/02 02:43:05;;;;;;;149.10;53.20;;;;;;;-6.23;65.12;99706.23;108376;1271;25500;-74
2022/03/02 02:45:33;;;;;;;147.30;55.40;;;;;;;-6.23;64.72;99706.04;108434;1269;22566;-76
2022/03/02 02:48:00;;;;;;;156.00;57.20;;;;;;;-6.23;64.19;99703.83;108351;1271;22534;-74
2022/03/02 02:50:30;;;;;;;159.50;56.70;;;;;;;-6.25;64.28;99699.22;108353;1271;25463;-74
2022/03/02 02:53:00;;;;;;;162.20;58.40;;;;;;;-6.26;63.90;99699.91;108338;1271;22560;-74
2022/03/02 02:55:28;;;;;;;171.80;61.00;;;;;;;-6.28;63.99;99700.36;108363;1271;22539;-75
2022/03/02 02:57:57;;;;;;;177.10;64.60;;;;;;;-6.31;63.77;99699.30;108835;1271;22547;-75
2022/03/02 03:00:27;;;;;;;173.80;61.80;;;;;;;-6.33;63.75;99700.91;108358;1271;22612;-74
2022/03/02 03:02:57;;;;;;;165.50;59.50;;;;;;;-6.35;63.70;99700.73;108345;1271;25313;-74
2022/03/02 03:05:26;;;;;;;149.70;51.20;;;;;;;-6.38;64.10;99703.73;108344;1271;22698;-74
2022/03/02 03:07:53;;;;;;;139.70;46.50;;;;;;;-6.41;64.01;99699.26;108343;1271;22531;-74
2022/03/02 03:10:21;;;;;;;145.90;48.00;;;;;;;-6.42;63.85;99699.40;108406;1271;26775;-74
2022/03/02 03:12:48;;;;;;;129.80;50.70;;;;;;;-6.39;63.51;99701.50;108369;1271;22535;-74
2022/03/02 03:15:17;;;;;;;127.20;50.00;;;;;;;-6.36;64.02;99700.55;108349;1271;22610;-74
2022/03/02 03:17:45;;;;;;;130.70;48.10;;;;;;;-6.33;64.78;99695.35;108332;1271;25251;-74
2022/03/02 03:20:14;;;;;;;132.00;49.20;;;;;;;-6.30;65.69;99692.86;108415;1271;22540;-77
2022/03/02 03:22:41;;;;;;;128.70;47.20;;;;;;;-6.28;66.25;99689.36;108359;1271;22547;-74
2022/03/02 03:25:10;;;;;;;120.10;46.20;;;;;;;-6.25;66.98;99684.97;108363;1271;24434;-73
2022/03/02 03:27:38;;;;;;;121.40;44.10;;;;;;;-6.24;67.47;99688.73;108368;1271;25191;-74
2022/03/02 03:30:07;;;;;;;120.10;41.80;;;;;;;-6.25;67.54;99686.85;108381;1271;25308;-73
2022/03/02 03:32:35;;;;;;;121.40;45.90;;;;;;;-6.27;66.91;99688.36;108476;1271;22716;-73
2022/03/02 03:35:04;;;;;;;127.30;47.30;;;;;;;-6.29;66.54;99684.92;108508;1271;24418;-73
2022/03/02 03:37:31;;;;;;;113.50;43.70;;;;;;;-6.31;66.36;99683.34;108407;1271;22536;-75
2022/03/02 03:39:59;;;;;;;116.50;41.10;;;;;;;-6.33;65.85;99680.08;108408;1271;22694;-76
2022/03/02 03:42:26;;;;;;;104.00;40.10;;;;;;;-6.37;65.44;99676.81;108433;1271;22528;-73
2022/03/02 03:44:53;;;;;;;116.40;42.40;;;;;;;-6.41;65.54;99677.90;108405;1271;22620;-74
2022/03/02 03:47:20;;;;;;;116.50;41.30;;;;;;;-6.46;65.15;99672.39;108353;1271;22529;-74
2022/03/02 03:49:47;;;;;;;114.80;39.90;;;;;;;-6.50;65.25;99673.84;108384;1271;22670;-74
2022/03/02 03:52:14;;;;;;;102.70;39.30;;;;;;;-6.54;64.90;99672.23;108411;1271;22547;-74
2022/03/02 03:54:41;;;;;;;105.00;41.00;;;;;;;-6.59;64.98;99673.32;108380;1271;25296;-74
2022/03/02 03:57:08;;;;;;;97.80;39.10;;;;;;;-6.63;64.66;99670.02;108341;1271;22535;-73
2022/03/02 03:59:35;;;;;;;89.50;37.70;;;;;;;-6.67;64.90;99674.69;108372;1271;22525;-73
2022/03/02 04:02:03;;;;;;;97.20;37.60;;;;;;;-6.71;64.87;99673.41;108369;1271;25389;-74
2022/03/02 04:04:29;;;;;;;91.60;37.30;;;;;;;-6.68;64.42;99673.80;108381;1271;25237;-73
2022/03/02 04:06:57;;;;;;;98.50;39.80;;;;;;;-6.66;65.10;99679.79;108372;1271;22691;-74
2022/03/02 04:09:24;;;;;;;105.70;41.70;;;;;;;-6.63;65.92;99682.57;108379;1271;25362;-74
2022/03/02 04:11:51;;;;;;;108.20;42.50;;;;;;;-6.60;66.82;99682.10;108367;1271;22537;-73
2022/03/02 04:14:19;;;;;;;94.50;38.50;;;;;;;-6.57;67.29;99679.13;108384;1271;22707;-74
2022/03/02 04:16:46;;;;;;;92.50;37.50;;;;;;;-6.55;67.89;99679.02;108436;1271;22614;-74
2022/03/02 04:19:13;;;;;;;87.10;35.30;;;;;;;-6.53;68.05;99674.47;108368;1271;23244;-74
2022/03/02 04:21:40;;;;;;;91.20;34.40;;;;;;;-6.52;68.52;99673.11;108353;1271;22540;-74
2022/03/02 04:24:07;;;;;;;88.40;34.60;;;;;;;-6.54;68.14;99677.84;108358;1271;22527;-74
2022/03/02 04:26:34;;;;;;;115.70;42.40;;;;;;;-6.55;67.86;99678.49;108343;1271;22552;-74
2022/03/02 04:29:01;;;;;;;118.20;44.50;;;;;;;-6.57;67.58;99679.63;108369;1271;25445;-74
2022/03/02 04:31:28;;;;;;;111.00;40.30;;;;;;;-6.60;67.27;99681.77;108386;1271;22646;-74
2022/03/02 04:33:55;;;;;;;117.70;40.30;;;;;;;-6.63;67.02;99677.99;108377;1271;22642;-74
2022/03/02 04:36:23;;;;;;;114.70;40.60;;;;;;;-6.66;66.76;99678.09;108353;1271;22688;-74
2022/03/02 04:38:50;;;;;;;110.90;40.70;;;;;;;-6.69;66.69;99672.59;108368;1271;22526;-74
2022/03/02 04:41:17;;;;;;;108.70;42.70;;;;;;;-6.72;66.31;99672.38;108343;1271;22522;-74
2022/03/02 04:43:45;;;;;;;123.50;43.40;;;;;;;-6.75;66.35;99668.59;108358;1271;22538;-74
2022/03/02 04:46:12;;;;;;;127.30;45.20;;;;;;;-6.79;66.47;99667.66;108357;1271;24257;-74
2022/03/02 04:48:39;;;;;;;118.50;42.30;;;;;;;-6.80;66.05;99665.28;108404;1271;22641;-75
2022/03/02 04:51:06;;;;;;;119.20;42.60;;;;;;;-6.83;66.11;99665.23;108379;1271;22547;-74
2022/03/02 04:53:33;;;;;;;109.70;43.80;;;;;;;-6.85;66.06;99666.04;108413;1271;22552;-73
2022/03/02 04:56:00;;;;;;;115.00;45.00;;;;;;;-6.83;66.08;99660.98;108391;1271;22551;-73
2022/03/02 04:58:27;;;;;;;113.80;44.60;;;;;;;-6.81;66.10;99663.58;108345;1271;25416;-73
2022/03/02 05:00:55;;;;;;;96.60;42.70;;;;;;;-6.79;67.14;99661.05;108367;1271;22558;-74
2022/03/02 05:03:22;;;;;;;103.30;42.50;;;;;;;-6.78;67.92;99658.69;108446;1271;22728;-73
2022/03/02 05:05:49;;;;;;;93.60;40.30;;;;;;;-6.78;69.01;99658.70;108352;1271;24305;-74
2022/03/02 05:08:16;;;;;;;89.20;39.00;;;;;;;-6.77;69.23;99662.10;108434;1270;22580;-74
2022/03/02 05:10:43;;;;;;;91.70;39.70;;;;;;;-6.76;69.39;99656.71;108334;1271;22562;-73
2022/03/02 05:13:10;;;;;;;90.10;38.60;;;;;;;-6.73;69.34;99654.39;108381;1271;22534;-74
2022/03/02 05:15:37;;;;;;;89.30;36.30;;;;;;;-6.71;69.61;99654.61;108406;1270;22540;-74
2022/03/02 05:18:04;;;;;;;80.10;34.50;;;;;;;-6.70;69.38;99651.90;108365;1271;22606;-73
2022/03/02 05:20:31;;;;;;;88.50;36.70;;;;;;;-6.70;69.21;99651.58;108390;1269;22678;-73
2022/03/02 05:22:58;;;;;;;102.30;40.20;;;;;;;-6.70;68.58;99649.20;108410;1271;25371;-73
2022/03/02 05:25:25;;;;;;;106.50;43.00;;;;;;;-6.72;68.08;99647.50;108419;1271;22528;-73
2022/03/02 05:27:52;;;;;;;104.00;44.10;;;;;;;-6.73;68.07;99651.38;108409;1271;22616;-73
2022/03/02 05:30:20;;;;;;;97.40;42.10;;;;;;;-6.73;67.67;99650.17;108424;1271;26640;-73
2022/03/02 05:32:47;;;;;;;103.70;44.90;;;;;;;-6.76;67.34;99651.30;108670;1271;22541;-73
2022/03/02 05:35:15;;;;;;;111.90;46.20;;;;;;;-6.79;67.29;99654.79;108798;1271;22678;-73
2022/03/02 05:37:43;;;;;;;122.50;49.80;;;;;;;-6.83;67.45;99654.04;108371;1271;22525;-73
2022/03/02 05:40:13;;;;;;;126.50;53.70;;;;;;;-6.87;67.32;99657.00;108439;1268;25522;-74
2022/03/02 05:42:40;;;;;;;121.80;51.30;;;;;;;-6.90;67.14;99653.55;108403;1271;22691;-73
2022/03/02 05:45:09;;;;;;;116.50;46.50;;;;;;;-6.93;66.71;99655.52;108421;1271;22688;-75
2022/03/02 05:47:37;;;;;;;124.40;52.90;;;;;;;-6.96;66.83;99660.19;108450;1271;24289;-77
2022/03/02 05:50:06;;;;;;;132.10;57.60;;;;;;;-6.94;66.61;99658.88;108418;1271;22521;-73
2022/03/02 05:52:33;;;;;;;140.50;60.60;;;;;;;-6.89;66.96;99655.26;108395;1271;22578;-73
2022/03/02 05:55:01;;;;;;;123.20;54.50;;;;;;;-6.84;67.81;99654.86;108435;1270;22525;-75
2022/03/02 05:57:28;;;;;;;146.10;66.20;;;;;;;-6.78;68.80;99651.93;108409;1271;22530;-73
2022/03/02 05:59:54;;;;;;;133.30;57.90;;;;;;;-6.70;69.58;99656.32;108446;1271;22563;-73
2022/03/02 06:02:21;;;;;;;135.30;57.70;;;;;;;-6.63;69.57;99653.23;108392;1271;23040;-74
2022/03/02 06:04:49;;;;;;;126.50;55.80;;;;;;;-6.56;70.27;99655.61;108423;1271;22619;-74
2022/03/02 06:07:16;;;;;;;133.60;52.00;;;;;;;-6.49;70.41;99649.11;108417;1271;22544;-74
2022/03/02 06:09:43;;;;;;;125.00;53.40;;;;;;;-6.41;70.43;99651.63;108400;1271;22693;-74
2022/03/02 06:12:11;;;;;;;122.00;54.20;;;;;;;-6.30;70.20;99651.84;108570;1270;24456;-74
2022/03/02 06:14:38;;;;;;;133.30;55.70;;;;;;;-6.09;70.39;99656.13;108796;1270;22675;-74
2022/03/02 06:17:06;;;;;;;119.90;52.50;;;;;;;-5.84;70.39;99656.85;108428;1269;22541;-75
2022/03/02 06:19:34;;;;;;;123.00;53.80;;;;;;;-5.63;70.49;99657.35;108500;1271;22525;-74
2022/03/02 06:22:03;;;;;;;153.30;58.60;;;;;;;-5.47;70.75;99652.84;108392;1271;22558;-74
2022/03/02 06:24:32;;;;;;;179.00;66.60;;;;;;;-5.31;70.24;99652.24;108419;1271;22628;-74
2022/03/02 06:26:59;;;;;;;180.10;65.80;;;;;;;-5.10;70.11;99656.45;108444;1271;22557;-74
2022/03/02 06:29:26;;;;;;;151.60;61.00;;;;;;;-4.82;70.08;99655.11;108444;1271;23095;-76
2022/03/02 06:31:53;;;;;;;147.10;53.90;;;;;;;-4.60;69.85;99655.20;108411;1271;22523;-74
2022/03/02 06:34:20;;;;;;;129.30;51.90;;;;;;;-4.43;69.32;99653.52;108385;1271;22606;-74
2022/03/02 06:36:50;;;;;;;138.20;52.00;;;;;;;-4.28;68.99;99649.27;108413;1270;22556;-74
2022/03/02 06:39:22;;;;;;;137.60;53.90;;;;;;;-4.10;68.49;99647.05;108422;1271;24260;-74
2022/03/02 06:42:09;;;;;;;127.00;53.00;;;;;;;-3.94;67.81;99646.19;108376;1271;22557;-74
2022/03/02 06:44:53;;;;;;;135.10;53.70;;;;;;;-3.80;67.59;99650.23;108387;1271;22555;-74
2022/03/02 06:47:27;;;;;;;150.00;55.50;;;;;;;-3.67;67.37;99647.94;108404;1271;22540;-74
2022/03/02 06:50:08;;;;;;;212.70;69.80;;;;;;;-3.64;66.90;99646.43;108373;1271;22569;-75
2022/03/02 06:52:39;;;;;;;285.60;93.90;;;;;;;-3.67;66.75;99649.16;108392;1271;22552;-75
2022/03/02 06:55:10;;;;;;;253.20;99.00;;;;;;;-3.68;66.89;99652.04;108476;1271;22664;-73
2022/03/02 06:57:39;;;;;;;234.90;92.20;;;;;;;-3.69;66.73;99654.24;108400;1271;22525;-74
2022/03/02 07:00:19;;;;;;;237.70;87.60;;;;;;;-3.65;66.63;99648.64;108407;1271;22560;-74
2022/03/02 07:02:48;;;;;;;281.20;98.70;;;;;;;-3.57;66.30;99643.60;108344;1271;24266;-74
2022/03/02 07:05:17;;;;;;;299.00;110.20;;;;;;;-3.52;66.14;99636.83;108427;1270;22521;-75
2022/03/02 07:07:45;;;;;;;155.00;59.30;;;;;;;-3.50;65.74;99640.26;108436;1271;22603;-73
2022/03/02 07:10:13;;;;;;;139.30;55.60;;;;;;;-3.50;65.61;99637.70;108486;1271;22543;-72
2022/03/02 07:12:41;;;;;;;92.10;40.20;;;;;;;-3.45;65.85;99637.89;108540;1271;24447;-73
2022/03/02 07:15:08;;;;;;;157.60;56.30;;;;;;;-3.35;65.68;99636.94;108444;1271;22565;-72
2022/03/02 07:17:36;;;;;;;158.90;60.50;;;;;;;-3.26;65.61;99633.93;108527;1270;22683;-71
2022/03/02 07:20:06;;;;;;;146.10;59.80;;;;;;;-3.21;65.55;99628.67;108342;1271;22532;-74
2022/03/02 07:22:36;;;;;;;118.00;52.40;;;;;;;-3.14;65.21;99628.55;108760;1271;22519;-73
2022/03/02 07:25:22;;;;;;;96.50;45.60;;;;;;;-3.08;65.15;99626.37;108478;1269;22704;-73
2022/03/02 07:27:52;;;;;;;99.20;45.30;;;;;;;-3.00;65.01;99627.25;108398;1271;24363;-71
2022/03/02 07:30:20;;;;;;;103.20;46.60;;;;;;;-2.96;64.91;99622.85;108394;1271;24240;-73
2022/03/02 07:32:47;;;;;;;99.60;45.40;;;;;;;-2.91;64.85;99623.04;108430;1271;26647;-78
2022/03/02 07:35:18;;;;;;;97.40;44.90;;;;;;;-2.84;65.12;99619.32;108443;1271;25203;-76
2022/03/02 07:37:46;;;;;;;103.20;45.20;;;;;;;-2.76;65.09;99619.88;108382;1271;22537;-73
2022/03/02 07:40:14;;;;;;;100.60;43.30;;;;;;;-2.65;64.64;99620.42;108394;1271;22525;-74
2022/03/02 07:42:42;;;;;;;75.80;37.40;;;;;;;-2.55;64.60;99620.62;108557;1271;25296;-73
2022/03/02 07:45:09;;;;;;;89.40;39.80;;;;;;;-2.46;64.55;99617.91;108460;1271;22601;-74
2022/03/02 07:47:36;;;;;;;69.20;31.70;;;;;;;-2.36;64.42;99614.19;108428;1268;22549;-74
2022/03/02 07:50:04;;;;;;;67.30;28.30;;;;;;;-2.24;64.22;99615.92;108461;1271;22528;-78
2022/03/02 07:52:35;;;;;;;61.20;27.50;;;;;;;-2.12;64.14;99610.13;108556;1271;22534;-75
2022/03/02 07:55:09;;;;;;;54.60;26.10;;;;;;;-2.00;63.76;99605.70;108586;1271;22698;-79
2022/03/02 07:57:41;;;;;;;51.70;24.60;;;;;;;-1.84;63.37;99609.46;108593;1271;22544;-78
2022/03/02 08:00:11;;;;;;;52.80;24.70;;;;;;;-1.71;63.11;99609.80;108528;1271;22534;-79
2022/03/02 08:02:40;;;;;;;52.40;23.50;;;;;;;-1.58;63.10;99609.30;108657;1271;24302;-76
2022/03/02 08:05:08;;;;;;;71.80;31.60;;;;;;;-1.45;62.92;99611.83;108585;1271;24218;-76
2022/03/02 08:07:36;;;;;;;55.50;25.30;;;;;;;-1.32;62.57;99607.38;108596;1271;25406;-75
2022/03/02 08:10:04;;;;;;;50.60;22.70;;;;;;;-1.20;62.20;99606.31;108565;1271;22536;-76
2022/03/02 08:12:31;;;;;;;57.20;24.00;;;;;;;-1.08;62.03;99604.23;108603;1271;22606;-75
2022/03/02 08:15:00;;;;;;;55.60;25.40;;;;;;;-0.97;61.48;99603.00;108643;1271;22535;-78
2022/03/02 08:17:27;;;;;;;87.50;32.60;;;;;;;-0.86;61.42;99602.61;108638;1271;22604;-76
2022/03/02 08:19:54;;;;;;;115.60;39.10;;;;;;;-0.74;61.06;99595.04;108617;1271;22531;-75
2022/03/02 08:22:24;;;;;;;81.60;30.70;;;;;;;-0.65;60.89;99589.02;108603;1271;22553;-76
2022/03/02 08:25:11;;;;;;;62.60;25.70;;;;;;;-0.55;60.47;99588.95;108609;1271;22610;-77
2022/03/02 08:27:40;;;;;;;79.30;32.90;;;;;;;-0.42;60.34;99585.98;108610;1271;22538;-76
2022/03/02 08:30:08;;;;;;;57.60;25.60;;;;;;;-0.32;60.21;99585.06;108632;1271;22551;-75
2022/03/02 08:32:40;;;;;;;42.10;20.00;;;;;;;-0.21;59.87;99581.73;108603;1271;22611;-76
2022/03/02 08:35:08;;;;;;;43.30;18.70;;;;;;;-0.10;59.21;99580.46;108609;1271;22532;-76
2022/03/02 08:37:36;;;;;;;42.40;19.20;;;;;;;-0.01;59.23;99579.88;108583;1271;22525;-79
2022/03/02 08:40:04;;;;;;;39.70;17.60;;;;;;;0.08;58.57;99573.48;108593;1271;22681;-75
2022/03/02 08:42:33;;;;;;;34.10;15.30;;;;;;;0.19;58.13;99573.73;108653;1271;25352;-75
2022/03/02 08:45:01;;;;;;;31.00;16.60;;;;;;;0.29;57.87;99566.10;108603;1271;22682;-76
2022/03/02 08:47:28;;;;;;;43.20;17.60;;;;;;;0.36;57.67;99563.30;108577;1271;22538;-81
2022/03/02 08:49:55;;;;;;;33.40;16.50;;;;;;;0.45;56.99;99560.48;108610;1271;22609;-80
2022/03/02 08:52:28;;;;;;;37.90;17.40;;;;;;;0.51;55.43;99559.90;108610;1269;24240;-80
2022/03/02 08:54:56;;;;;;;37.20;16.70;;;;;;;0.55;55.55;99549.73;108602;1271;22688;-81
2022/03/02 08:57:24;;;;;;;38.90;17.80;;;;;;;0.59;55.42;99551.24;108634;1271;22551;-77
2022/03/02 08:59:54;;;;;;;39.40;19.40;;;;;;;0.64;55.79;99546.55;108592;1271;22624;-74
2022/03/02 09:02:30;;;;;;;41.50;18.10;;;;;;;0.72;55.84;99545.09;108538;1270;24378;-76
2022/03/02 09:05:01;;;;;;;44.10;21.10;;;;;;;0.77;55.85;99543.67;108623;1270;22606;-76
2022/03/02 09:07:28;;;;;;;45.50;22.30;;;;;;;0.83;55.75;99538.27;108540;1271;22694;-75
2022/03/02 09:09:55;;;;;;;54.40;25.10;;;;;;;0.89;55.88;99536.68;108614;1271;22661;-74
2022/03/02 09:12:22;;;;;;;53.20;24.00;;;;;;;0.96;55.83;99535.91;108611;1271;22526;-74
2022/03/02 09:14:49;;;;;;;44.40;20.70;;;;;;;1.03;55.64;99534.61;108608;1271;25409;-76
2022/03/02 09:17:25;;;;;;;41.70;18.20;;;;;;;1.08;55.12;99531.80;108540;1271;22519;-74
2022/03/02 09:19:53;;;;;;;34.70;16.70;;;;;;;1.10;54.56;99523.36;108431;1271;22855;-74
2022/03/02 09:22:25;;;;;;;31.70;14.00;;;;;;;1.19;53.63;99525.50;108505;1271;22684;-74
2022/03/02 09:24:53;;;;;;;31.20;14.60;;;;;;;1.22;53.03;99524.25;108469;1271;22544;-77
2022/03/02 09:27:21;;;;;;;34.60;16.30;;;;;;;1.26;53.15;99522.98;108437;1271;22551;-74
2022/03/02 09:29:50;;;;;;;30.40;14.10;;;;;;;1.32;53.25;99519.83;108377;1271;22521;-75
2022/03/02 09:32:19;;;;;;;33.00;18.50;;;;;;;1.39;53.60;99523.15;108350;1271;22520;-76
2022/03/02 09:34:48;;;;;;;26.60;13.60;;;;;;;1.46;52.49;99524.08;108411;1271;22695;-81
2022/03/02 09:37:16;;;;;;;22.20;11.50;;;;;;;1.50;52.67;99521.63;108418;1271;22539;-74
2022/03/02 09:39:44;;;;;;;34.80;16.50;;;;;;;1.56;52.33;99521.19;108866;1271;22525;-74
2022/03/02 09:42:15;;;;;;;54.30;30.70;;;;;;;1.62;51.51;99519.38;108386;1271;25433;-74
2022/03/02 09:44:55;;;;;;;27.40;14.40;;;;;;;1.65;51.14;99515.91;108454;1271;22541;-73
2022/03/02 09:47:24;;;;;;;50.20;19.50;;;;;;;1.72;50.64;99515.10;108449;1271;22525;-78
2022/03/02 09:49:56;;;;;;;26.80;13.60;;;;;;;1.80;49.13;99510.01;108475;1271;22829;-81
2022/03/02 09:52:24;;;;;;;22.80;11.10;;;;;;;1.79;49.57;99507.77;108438;1271;22491;-80
2022/03/02 09:54:57;;;;;;;24.90;13.10;;;;;;;1.83;49.56;99513.39;108426;1270;22610;-77
2022/03/02 09:57:24;;;;;;;24.80;13.80;;;;;;;1.86;49.36;99510.08;108424;1271;22580;-78
2022/03/02 09:59:57;;;;;;;23.90;12.60;;;;;;;1.89;48.78;99509.67;108433;1271;22526;-73
2022/03/02 10:02:37;;;;;;;20.70;10.00;;;;;;;1.90;48.85;99500.90;108385;1271;22537;-74
2022/03/02 10:05:10;;;;;;;19.60;9.70;;;;;;;1.91;48.83;99499.34;108415;1271;25250;-76
2022/03/02 10:07:40;;;;;;;27.70;10.40;;;;;;;1.97;48.68;99500.80;108363;1268;22568;-80
2022/03/02 10:10:11;;;;;;;22.80;11.70;;;;;;;1.97;48.20;99496.15;108432;1271;25767;-78
2022/03/02 10:12:40;;;;;;;23.90;11.90;;;;;;;1.97;47.82;99491.17;108403;1271;24283;-77
2022/03/02 10:15:15;;;;;;;20.10;12.10;;;;;;;1.97;48.14;99492.04;108405;1271;22531;-78
2022/03/02 10:17:44;;;;;;;18.80;9.60;;;;;;;1.99;48.17;99488.20;108386;1271;22567;-77
2022/03/02 10:20:15;;;;;;;23.90;11.60;;;;;;;2.02;48.25;99488.01;108327;1271;22538;-77
2022/03/02 10:22:57;;;;;;;23.40;11.50;;;;;;;2.06;47.37;99486.21;108363;1271;22555;-79
2022/03/02 10:25:47;;;;;;;31.90;14.40;;;;;;;2.11;48.14;99479.77;108380;1270;22575;-77
2022/03/02 10:28:24;;;;;;;24.50;11.90;;;;;;;2.17;48.56;99477.74;108389;1271;25349;-76
2022/03/02 10:31:15;;;;;;;23.80;12.10;;;;;;;2.22;47.94;99470.98;108365;1271;25432;-78
2022/03/02 10:33:51;;;;;;;19.80;10.60;;;;;;;2.28;47.67;99468.98;108337;1271;22557;-78
2022/03/02 10:36:20;;;;;;;18.60;7.80;;;;;;;2.33;48.28;99461.83;108365;1271;26193;-78
2022/03/02 10:39:09;;;;;;;26.40;10.70;;;;;;;2.42;47.42;99459.25;108376;1271;24217;-78
2022/03/02 10:41:39;;;;;;;27.00;10.80;;;;;;;2.41;47.00;99455.48;108317;1271;22563;-77
2022/03/02 10:44:33;;;;;;;23.00;10.10;;;;;;;2.47;47.10;99451.42;108450;1271;22534;-77
2022/03/02 10:47:03;;;;;;;33.00;13.80;;;;;;;2.51;46.67;99449.27;108350;1271;22539;-78
2022/03/02 10:49:32;;;;;;;33.50;15.50;;;;;;;2.54;45.26;99446.98;108409;1271;22524;-78
2022/03/02 10:52:01;;;;;;;15.90;8.30;;;;;;;2.62;46.43;99445.45;108441;1271;22705;-78
2022/03/02 10:54:31;;;;;;;33.80;15.00;;;;;;;2.62;46.24;99446.46;108415;1271;22537;-78
2022/03/02 10:57:03;;;;;;;19.50;9.80;;;;;;;2.66;46.02;99442.79;108321;1271;22546;-78
2022/03/02 10:59:31;;;;;;;25.50;12.10;;;;;;;2.72;46.46;99441.27;108428;1271;23289;-78
2022/03/02 11:02:00;;;;;;;23.50;10.20;;;;;;;2.75;45.20;99435.72;108370;1271;22571;-80
2022/03/02 11:04:30;;;;;;;25.60;11.90;;;;;;;2.80;45.45;99426.15;108461;1271;25255;-79
2022/03/02 11:06:56;;;;;;;30.60;13.60;;;;;;;2.82;45.04;99423.53;108529;1271;22604;-79
2022/03/02 11:09:25;;;;;;;35.00;13.80;;;;;;;2.86;45.13;99417.75;108425;1271;25412;-79
2022/03/02 11:11:54;;;;;;;24.90;11.40;;;;;;;2.92;44.19;99414.71;108482;1271;22688;-79
2022/03/02 11:14:21;;;;;;;23.40;11.60;;;;;;;2.91;43.56;99412.33;108414;1270;22537;-81